NKS983 KFLL-KMYR
Flight info
| Callsign | NKS983 |
|---|---|
| Flight time | 1h 20m |
| Altitude | 37000 |
| Route | AGERS1 DUCEN Q87 JROSS |
| Aircraft | A320/M-SDE3FGHIRWY/LB1 |
Departure
| Time | 2026-05-04 15:34 |
|---|---|
| Airport | Fort Lauderdale Hollywood International Airport (KFLL) |
Arrival
| Time | 2026-05-04 16:55 |
|---|---|
| Airport | Myrtle Beach International Airport (KMYR) |
| Time | Latitude | Longitude | Altitude | Speed | Heading |
|---|---|---|---|---|---|
| 2026-05-04 15:14 | 26.06881 | -80.14297 | 16 ft | 0 kts | 360° |
| 2026-05-04 15:23 | 26.06873 | -80.14297 | 18 ft | 3 kts | 359° |
| 2026-05-04 15:24 | 26.06834 | -80.14291 | 18 ft | 3 kts | 333° |
| 2026-05-04 15:24 | 26.06818 | -80.14272 | 17 ft | 0 kts | 268° |
| 2026-05-04 15:27 | 26.06818 | -80.14310 | 16 ft | 11 kts | 270° |
| 2026-05-04 15:28 | 26.06826 | -80.14591 | 16 ft | 16 kts | 295° |
| 2026-05-04 15:28 | 26.06915 | -80.14680 | 16 ft | 18 kts | 324° |
| 2026-05-04 15:28 | 26.06975 | -80.14867 | 16 ft | 16 kts | 316° |
| 2026-05-04 15:29 | 26.07056 | -80.14956 | 16 ft | 18 kts | 315° |
| 2026-05-04 15:30 | 26.07330 | -80.15300 | 16 ft | 18 kts | 0° |
| 2026-05-04 15:30 | 26.07565 | -80.15432 | 16 ft | 15 kts | 270° |
| 2026-05-04 15:31 | 26.07566 | -80.15744 | 16 ft | 21 kts | 271° |
| 2026-05-04 15:31 | 26.07568 | -80.15909 | 16 ft | 21 kts | 270° |
| 2026-05-04 15:32 | 26.07570 | -80.16396 | 17 ft | 21 kts | 268° |
| 2026-05-04 15:32 | 26.07589 | -80.16636 | 17 ft | 10 kts | 316° |
| 2026-05-04 15:33 | 26.07694 | -80.16551 | 18 ft | 13 kts | 91° |
| 2026-05-04 15:34 | 26.07688 | -80.14921 | 19 ft | 146 kts | 90° |
| 2026-05-04 15:34 | 26.07667 | -80.13723 | 449 ft | 153 kts | 91° |
| 2026-05-04 15:34 | 26.07718 | -80.11343 | 1699 ft | 155 kts | 82° |
| 2026-05-04 15:35 | 26.08249 | -80.08723 | 2297 ft | 195 kts | 61° |
| 2026-05-04 15:35 | 26.09004 | -80.07388 | 2593 ft | 220 kts | 40° |
| 2026-05-04 15:35 | 26.10420 | -80.06536 | 3051 ft | 242 kts | 18° |
| 2026-05-04 15:36 | 26.13748 | -80.05293 | 4761 ft | 262 kts | 18° |
| 2026-05-04 15:36 | 26.15547 | -80.04859 | 5616 ft | 267 kts | 357° |
| 2026-05-04 15:36 | 26.17344 | -80.05343 | 6518 ft | 271 kts | 334° |
| 2026-05-04 15:37 | 26.19098 | -80.06171 | 7355 ft | 275 kts | 336° |
| 2026-05-04 15:37 | 26.20858 | -80.07018 | 8239 ft | 276 kts | 327° |
| 2026-05-04 15:37 | 26.22371 | -80.08321 | 9052 ft | 275 kts | 310° |
| 2026-05-04 15:37 | 26.23419 | -80.10100 | 9867 ft | 276 kts | 291° |
| 2026-05-04 15:38 | 26.24110 | -80.12129 | 10397 ft | 290 kts | 289° |
| 2026-05-04 15:38 | 26.25055 | -80.14214 | 10596 ft | 315 kts | 302° |
| 2026-05-04 15:38 | 26.26564 | -80.16105 | 10821 ft | 339 kts | 316° |
| 2026-05-04 15:38 | 26.28546 | -80.17608 | 11410 ft | 350 kts | 329° |
| 2026-05-04 15:39 | 26.30740 | -80.18819 | 12155 ft | 353 kts | 329° |
| 2026-05-04 15:39 | 26.32939 | -80.20052 | 12891 ft | 355 kts | 328° |
| 2026-05-04 15:39 | 26.37449 | -80.22430 | 14261 ft | 365 kts | 336° |
| 2026-05-04 15:40 | 26.39969 | -80.23031 | 14821 ft | 377 kts | 348° |
| 2026-05-04 15:40 | 26.42566 | -80.23304 | 15369 ft | 381 kts | 348° |
| 2026-05-04 15:40 | 26.45217 | -80.23570 | 15919 ft | 384 kts | 349° |
| 2026-05-04 15:40 | 26.47899 | -80.23837 | 16493 ft | 388 kts | 348° |
| 2026-05-04 15:41 | 26.50603 | -80.24110 | 17097 ft | 392 kts | 348° |
| 2026-05-04 15:41 | 26.53331 | -80.24388 | 17683 ft | 395 kts | 348° |
| 2026-05-04 15:41 | 26.56088 | -80.24670 | 18008 ft | 399 kts | 348° |
| 2026-05-04 15:41 | 26.58847 | -80.25024 | 18545 ft | 400 kts | 346° |
| 2026-05-04 15:42 | 26.61603 | -80.25460 | 19080 ft | 401 kts | 345° |
| 2026-05-04 15:42 | 26.64372 | -80.25948 | 19612 ft | 403 kts | 345° |
| 2026-05-04 15:42 | 26.67149 | -80.26452 | 20165 ft | 406 kts | 344° |
| 2026-05-04 15:42 | 26.69937 | -80.26983 | 20690 ft | 406 kts | 341° |
| 2026-05-04 15:43 | 26.72624 | -80.27896 | 21192 ft | 402 kts | 333° |
| 2026-05-04 15:43 | 26.75248 | -80.29002 | 21687 ft | 404 kts | 333° |
| 2026-05-04 15:43 | 26.77889 | -80.30111 | 22160 ft | 407 kts | 333° |
| 2026-05-04 15:43 | 26.80552 | -80.31224 | 22639 ft | 409 kts | 334° |
| 2026-05-04 15:44 | 26.83198 | -80.32327 | 23102 ft | 412 kts | 334° |
| 2026-05-04 15:44 | 26.85894 | -80.33451 | 23569 ft | 414 kts | 334° |
| 2026-05-04 15:44 | 26.88596 | -80.34579 | 23959 ft | 416 kts | 333° |
| 2026-05-04 15:44 | 26.91312 | -80.35714 | 24324 ft | 417 kts | 333° |
| 2026-05-04 15:45 | 26.94040 | -80.36858 | 24700 ft | 419 kts | 333° |
| 2026-05-04 15:45 | 26.96778 | -80.37996 | 25076 ft | 421 kts | 333° |
| 2026-05-04 15:45 | 26.99532 | -80.39117 | 25465 ft | 423 kts | 334° |
| 2026-05-04 15:45 | 27.02309 | -80.40231 | 25869 ft | 424 kts | 334° |
| 2026-05-04 15:46 | 27.05099 | -80.41345 | 26260 ft | 426 kts | 334° |
| 2026-05-04 15:46 | 27.07895 | -80.42463 | 26654 ft | 427 kts | 333° |
| 2026-05-04 15:46 | 27.10697 | -80.43600 | 27040 ft | 428 kts | 333° |
| 2026-05-04 15:46 | 27.13486 | -80.44791 | 27407 ft | 429 kts | 332° |
| 2026-05-04 15:47 | 27.16269 | -80.46023 | 27763 ft | 431 kts | 331° |
| 2026-05-04 15:47 | 27.19057 | -80.47280 | 28125 ft | 432 kts | 331° |
| 2026-05-04 15:47 | 27.21848 | -80.48544 | 28491 ft | 433 kts | 331° |
| 2026-05-04 15:47 | 27.24637 | -80.49800 | 29002 ft | 431 kts | 331° |
| 2026-05-04 15:48 | 27.27415 | -80.51038 | 29530 ft | 429 kts | 331° |
| 2026-05-04 15:48 | 27.30182 | -80.52260 | 30046 ft | 427 kts | 331° |
| 2026-05-04 15:48 | 27.35659 | -80.54666 | 30919 ft | 423 kts | 331° |
| 2026-05-04 15:49 | 27.38402 | -80.55853 | 31340 ft | 423 kts | 332° |
| 2026-05-04 15:49 | 27.41170 | -80.56984 | 31767 ft | 422 kts | 332° |
| 2026-05-04 15:49 | 27.43942 | -80.58076 | 32217 ft | 421 kts | 333° |
| 2026-05-04 15:49 | 27.46710 | -80.59146 | 32652 ft | 420 kts | 333° |
| 2026-05-04 15:50 | 27.49469 | -80.60210 | 33086 ft | 419 kts | 333° |
| 2026-05-04 15:50 | 27.52216 | -80.61281 | 33526 ft | 417 kts | 333° |
| 2026-05-04 15:50 | 27.54949 | -80.62358 | 33984 ft | 415 kts | 332° |
| 2026-05-04 15:50 | 27.57667 | -80.63441 | 34377 ft | 414 kts | 332° |
| 2026-05-04 15:51 | 27.60386 | -80.64530 | 34710 ft | 414 kts | 332° |
| 2026-05-04 15:51 | 27.63102 | -80.65620 | 35020 ft | 414 kts | 332° |
| 2026-05-04 15:51 | 27.65817 | -80.66710 | 35321 ft | 414 kts | 332° |
| 2026-05-04 15:51 | 27.68539 | -80.67799 | 35613 ft | 415 kts | 332° |
| 2026-05-04 15:52 | 27.71221 | -80.68871 | 35892 ft | 415 kts | 332° |
| 2026-05-04 15:52 | 27.73983 | -80.69975 | 36177 ft | 415 kts | 332° |
| 2026-05-04 15:52 | 27.76708 | -80.71063 | 36458 ft | 416 kts | 332° |
| 2026-05-04 15:52 | 27.79402 | -80.72138 | 36723 ft | 416 kts | 332° |
| 2026-05-04 15:53 | 27.82131 | -80.73225 | 36953 ft | 417 kts | 332° |
| 2026-05-04 15:53 | 27.84869 | -80.74316 | 37096 ft | 418 kts | 332° |
| 2026-05-04 15:53 | 27.90403 | -80.76536 | 37123 ft | 424 kts | 332° |
| 2026-05-04 15:54 | 27.95970 | -80.78776 | 37124 ft | 425 kts | 332° |
| 2026-05-04 15:54 | 28.01547 | -80.81015 | 37122 ft | 425 kts | 332° |
| 2026-05-04 15:55 | 28.07125 | -80.83247 | 37118 ft | 425 kts | 332° |
| 2026-05-04 15:55 | 28.12702 | -80.85491 | 37141 ft | 425 kts | 332° |
| 2026-05-04 15:56 | 28.18276 | -80.87742 | 37135 ft | 425 kts | 332° |
| 2026-05-04 15:56 | 28.23815 | -80.89979 | 37128 ft | 426 kts | 332° |
| 2026-05-04 15:57 | 28.29400 | -80.92233 | 37147 ft | 426 kts | 332° |
| 2026-05-04 15:57 | 28.34982 | -80.94487 | 37157 ft | 425 kts | 332° |
| 2026-05-04 15:58 | 28.40561 | -80.96745 | 37165 ft | 425 kts | 332° |
| 2026-05-04 15:58 | 28.46126 | -80.99001 | 37168 ft | 425 kts | 332° |
| 2026-05-04 15:59 | 28.51698 | -81.01261 | 37170 ft | 425 kts | 332° |
| 2026-05-04 15:59 | 28.57260 | -81.03520 | 37169 ft | 424 kts | 332° |
| 2026-05-04 16:00 | 28.62818 | -81.05779 | 37166 ft | 424 kts | 332° |
| 2026-05-04 16:00 | 28.68355 | -81.08028 | 37138 ft | 419 kts | 332° |
| 2026-05-04 16:01 | 28.73821 | -81.10258 | 37140 ft | 420 kts | 332° |
| 2026-05-04 16:01 | 28.79327 | -81.12510 | 37141 ft | 420 kts | 332° |
| 2026-05-04 16:02 | 28.84832 | -81.14761 | 37140 ft | 420 kts | 332° |
| 2026-05-04 16:03 | 28.93094 | -81.18138 | 37144 ft | 420 kts | 332° |
| 2026-05-04 16:03 | 28.98599 | -81.20390 | 37168 ft | 420 kts | 332° |
| 2026-05-04 16:04 | 29.04107 | -81.22648 | 37171 ft | 421 kts | 332° |
| 2026-05-04 16:04 | 29.12372 | -81.26045 | 37174 ft | 421 kts | 332° |
| 2026-05-04 16:05 | 29.16954 | -81.27921 | 37184 ft | 421 kts | 332° |
| 2026-05-04 16:06 | 29.25217 | -81.31315 | 37180 ft | 421 kts | 332° |
| 2026-05-04 16:06 | 29.34163 | -81.32702 | 37182 ft | 440 kts | 348° |
| 2026-05-04 16:07 | 29.38214 | -81.32931 | 37181 ft | 440 kts | 348° |
| 2026-05-04 16:08 | 29.49419 | -81.33588 | 37186 ft | 440 kts | 347° |
| 2026-05-04 16:09 | 29.64702 | -81.34505 | 37183 ft | 440 kts | 347° |
| 2026-05-04 16:10 | 29.76930 | -81.35221 | 37196 ft | 440 kts | 347° |
| 2026-05-04 16:11 | 29.89150 | -81.35937 | 37203 ft | 439 kts | 347° |
| 2026-05-04 16:12 | 30.07459 | -81.37034 | 37199 ft | 439 kts | 346° |
| 2026-05-04 16:13 | 30.19658 | -81.37768 | 37191 ft | 439 kts | 346° |
| 2026-05-04 16:14 | 30.31825 | -81.38497 | 37198 ft | 439 kts | 346° |
| 2026-05-04 16:16 | 30.47094 | -81.39419 | 37192 ft | 440 kts | 346° |
| 2026-05-04 16:17 | 30.62428 | -81.40220 | 37204 ft | 442 kts | 346° |
| 2026-05-04 16:18 | 30.74691 | -81.40859 | 37199 ft | 442 kts | 346° |
| 2026-05-04 16:19 | 30.90100 | -81.41677 | 37181 ft | 444 kts | 346° |
| 2026-05-04 16:20 | 31.05537 | -81.42504 | 37181 ft | 444 kts | 346° |
| 2026-05-04 16:22 | 31.20975 | -81.43334 | 37179 ft | 447 kts | 347° |
| 2026-05-04 16:22 | 31.30425 | -81.40777 | 37175 ft | 489 kts | 15° |
| 2026-05-04 16:23 | 31.39682 | -81.35718 | 37163 ft | 490 kts | 15° |
| 2026-05-04 16:25 | 31.58255 | -81.25637 | 37158 ft | 492 kts | 15° |
| 2026-05-04 16:26 | 31.80067 | -81.13736 | 37144 ft | 495 kts | 15° |
| 2026-05-04 16:28 | 31.95707 | -81.05138 | 37141 ft | 497 kts | 15° |
| 2026-05-04 16:29 | 32.17612 | -80.92914 | 37186 ft | 500 kts | 16° |
| 2026-05-04 16:31 | 32.33333 | -80.84099 | 37182 ft | 501 kts | 16° |
| 2026-05-04 16:32 | 32.52238 | -80.73426 | 37178 ft | 502 kts | 16° |
| 2026-05-04 16:33 | 32.64826 | -80.66308 | 37172 ft | 503 kts | 16° |
| 2026-05-04 16:34 | 32.71003 | -80.62243 | 37169 ft | 518 kts | 30° |
| 2026-05-04 16:34 | 32.73743 | -80.59414 | 37173 ft | 528 kts | 40° |
| 2026-05-04 16:35 | 32.81273 | -80.49800 | 36814 ft | 530 kts | 41° |
| 2026-05-04 16:35 | 32.88825 | -80.40237 | 36070 ft | 527 kts | 41° |
| 2026-05-04 16:36 | 32.91332 | -80.37053 | 35805 ft | 527 kts | 40° |
| 2026-05-04 16:36 | 32.96375 | -80.30636 | 34083 ft | 532 kts | 41° |
| 2026-05-04 16:37 | 33.01337 | -80.24264 | 31933 ft | 516 kts | 41° |
| 2026-05-04 16:37 | 33.03764 | -80.21142 | 30868 ft | 510 kts | 41° |
| 2026-05-04 16:37 | 33.08575 | -80.14974 | 28435 ft | 510 kts | 42° |
| 2026-05-04 16:38 | 33.13459 | -80.08725 | 26291 ft | 514 kts | 43° |
| 2026-05-04 16:39 | 33.20638 | -79.99497 | 23884 ft | 500 kts | 43° |
| 2026-05-04 16:39 | 33.25278 | -79.93501 | 22205 ft | 487 kts | 43° |
| 2026-05-04 16:40 | 33.29820 | -79.87622 | 20636 ft | 475 kts | 43° |
| 2026-05-04 16:40 | 33.34243 | -79.81896 | 19177 ft | 462 kts | 43° |
| 2026-05-04 16:41 | 33.38547 | -79.76318 | 17720 ft | 450 kts | 43° |
| 2026-05-04 16:41 | 33.44572 | -79.68501 | 15752 ft | 412 kts | 44° |
| 2026-05-04 16:42 | 33.50369 | -79.60970 | 13816 ft | 408 kts | 44° |
| 2026-05-04 16:43 | 33.54191 | -79.55994 | 12414 ft | 403 kts | 44° |
| 2026-05-04 16:43 | 33.57948 | -79.51090 | 11037 ft | 395 kts | 44° |
| 2026-05-04 16:43 | 33.59780 | -79.48694 | 10745 ft | 381 kts | 45° |
| 2026-05-04 16:44 | 33.66114 | -79.40365 | 9920 ft | 302 kts | 44° |
| 2026-05-04 16:45 | 33.68926 | -79.36696 | 9650 ft | 298 kts | 44° |
| 2026-05-04 16:46 | 33.73145 | -79.31183 | 8864 ft | 299 kts | 44° |
| 2026-05-04 16:46 | 33.75894 | -79.27556 | 7777 ft | 291 kts | 44° |
| 2026-05-04 16:47 | 33.78510 | -79.23923 | 6816 ft | 288 kts | 54° |
| 2026-05-04 16:47 | 33.80120 | -79.19449 | 6137 ft | 289 kts | 67° |
| 2026-05-04 16:48 | 33.82219 | -79.12765 | 4548 ft | 279 kts | 67° |
| 2026-05-04 16:48 | 33.82899 | -79.10604 | 4145 ft | 272 kts | 68° |
| 2026-05-04 16:49 | 33.84140 | -79.06632 | 3873 ft | 238 kts | 67° |
| 2026-05-04 16:49 | 33.85242 | -79.03111 | 3653 ft | 212 kts | 67° |
| 2026-05-04 16:50 | 33.86091 | -78.99949 | 3496 ft | 192 kts | 87° |
| 2026-05-04 16:50 | 33.84927 | -78.97269 | 3150 ft | 182 kts | 148° |
| 2026-05-04 16:51 | 33.82570 | -78.96487 | 2684 ft | 176 kts | 168° |
| 2026-05-04 16:51 | 33.81366 | -78.96187 | 2461 ft | 178 kts | 167° |
| 2026-05-04 16:51 | 33.78955 | -78.95581 | 1983 ft | 175 kts | 168° |
| 2026-05-04 16:52 | 33.76612 | -78.94993 | 1513 ft | 163 kts | 168° |
| 2026-05-04 16:52 | 33.75531 | -78.94723 | 1293 ft | 155 kts | 169° |
| 2026-05-04 16:53 | 33.73466 | -78.94197 | 883 ft | 148 kts | 168° |
| 2026-05-04 16:53 | 33.70616 | -78.93492 | 354 ft | 133 kts | 167° |
| 2026-05-04 16:54 | 33.69713 | -78.93267 | 170 ft | 132 kts | 168° |
| 2026-05-04 16:55 | 33.67595 | -78.92694 | 32 ft | 27 kts | 144° |
| 2026-05-04 16:55 | 33.67499 | -78.92516 | 32 ft | 12 kts | 19° |
| 2026-05-04 16:56 | 33.67699 | -78.92561 | 32 ft | 17 kts | 348° |
| 2026-05-04 16:56 | 33.67939 | -78.92465 | 32 ft | 8 kts | 38° |
| 2026-05-04 16:57 | 33.67965 | -78.92438 | 32 ft | 2 kts | 39° |
| 2026-05-04 16:57 | 33.67966 | -78.92437 | 32 ft | 0 kts | 39° |